LGL700 LEIB-ELLX
Flight info
| Callsign | LGL700 |
|---|---|
| Flight time | 1h 53m |
| Altitude | 36000 |
| Route | KABRE4R KABRE DCT ELTAN N853 LUMAS DCT MAXIR DCT LUSOL DCT BODRU DCT OKTET DCT IRMAR DCT KINES DCT VANAS DCT MOBLO DCT UBIMA/N0426F300 DCT GILIR DCT PENDU DCT IXILU DCT EPL G21 GIVOR GIVOR5S |
| Aircraft | B738/M-SDE2E3FGHIJ1RWXY/LB1V1 |
Departure
| Time | 2026-05-07 17:17 |
|---|---|
| Airport | Ibiza Airport (LEIB) |
Arrival
| Time | 2026-05-07 19:10 |
|---|---|
| Airport | Luxembourg-Findel International Airport (ELLX) |
| Time | Latitude | Longitude | Altitude | Speed | Heading |
|---|---|---|---|---|---|
| 2026-05-07 16:47 | 38.87544 | 1.37210 | 35 ft | 0 kts | 332° |
| 2026-05-07 17:10 | 38.87548 | 1.37207 | 35 ft | 2 kts | 332° |
| 2026-05-07 17:10 | 38.87575 | 1.37187 | 37 ft | 5 kts | 319° |
| 2026-05-07 17:11 | 38.87576 | 1.37124 | 38 ft | 9 kts | 245° |
| 2026-05-07 17:11 | 38.87545 | 1.37048 | 37 ft | 9 kts | 241° |
| 2026-05-07 17:11 | 38.87510 | 1.36965 | 35 ft | 11 kts | 242° |
| 2026-05-07 17:11 | 38.87474 | 1.36877 | 33 ft | 11 kts | 242° |
| 2026-05-07 17:12 | 38.87437 | 1.36797 | 30 ft | 9 kts | 221° |
| 2026-05-07 17:12 | 38.87366 | 1.36813 | 26 ft | 12 kts | 152° |
| 2026-05-07 17:12 | 38.87303 | 1.36854 | 24 ft | 7 kts | 166° |
| 2026-05-07 17:12 | 38.87267 | 1.36818 | 23 ft | 7 kts | 240° |
| 2026-05-07 17:13 | 38.87232 | 1.36734 | 22 ft | 14 kts | 242° |
| 2026-05-07 17:13 | 38.87181 | 1.36610 | 21 ft | 15 kts | 242° |
| 2026-05-07 17:13 | 38.87130 | 1.36486 | 20 ft | 15 kts | 243° |
| 2026-05-07 17:13 | 38.87081 | 1.36368 | 19 ft | 14 kts | 240° |
| 2026-05-07 17:14 | 38.87032 | 1.36252 | 18 ft | 14 kts | 242° |
| 2026-05-07 17:14 | 38.86985 | 1.36138 | 17 ft | 14 kts | 242° |
| 2026-05-07 17:14 | 38.86933 | 1.36013 | 15 ft | 17 kts | 242° |
| 2026-05-07 17:14 | 38.86878 | 1.35881 | 12 ft | 15 kts | 242° |
| 2026-05-07 17:15 | 38.86840 | 1.35787 | 11 ft | 10 kts | 241° |
| 2026-05-07 17:15 | 38.86782 | 1.35771 | 10 ft | 9 kts | 153° |
| 2026-05-07 17:15 | 38.86744 | 1.35824 | 11 ft | 8 kts | 109° |
| 2026-05-07 17:15 | 38.86716 | 1.35904 | 11 ft | 9 kts | 112° |
| 2026-05-07 17:16 | 38.86731 | 1.35974 | 12 ft | 7 kts | 62° |
| 2026-05-07 17:16 | 38.86818 | 1.36184 | 15 ft | 58 kts | 62° |
| 2026-05-07 17:16 | 38.87112 | 1.36896 | 20 ft | 121 kts | 61° |
| 2026-05-07 17:16 | 38.87583 | 1.38030 | 186 ft | 157 kts | 64° |
| 2026-05-07 17:17 | 38.88053 | 1.39233 | 913 ft | 154 kts | 68° |
| 2026-05-07 17:17 | 38.88312 | 1.40561 | 1485 ft | 159 kts | 79° |
| 2026-05-07 17:17 | 38.88538 | 1.41983 | 1984 ft | 170 kts | 77° |
| 2026-05-07 17:17 | 38.88818 | 1.43563 | 2391 ft | 189 kts | 76° |
| 2026-05-07 17:18 | 38.89135 | 1.45256 | 2894 ft | 203 kts | 76° |
| 2026-05-07 17:18 | 38.89480 | 1.47020 | 3596 ft | 206 kts | 76° |
| 2026-05-07 17:18 | 38.89831 | 1.48791 | 4307 ft | 209 kts | 76° |
| 2026-05-07 17:18 | 38.90181 | 1.50582 | 5011 ft | 211 kts | 76° |
| 2026-05-07 17:19 | 38.90539 | 1.52426 | 5674 ft | 215 kts | 76° |
| 2026-05-07 17:19 | 38.90846 | 1.54275 | 6405 ft | 215 kts | 82° |
| 2026-05-07 17:19 | 38.90817 | 1.56243 | 6917 ft | 227 kts | 96° |
| 2026-05-07 17:19 | 38.90562 | 1.58281 | 7335 ft | 241 kts | 98° |
| 2026-05-07 17:20 | 38.90300 | 1.60466 | 7929 ft | 248 kts | 96° |
| 2026-05-07 17:20 | 38.90080 | 1.62634 | 8623 ft | 250 kts | 96° |
| 2026-05-07 17:20 | 38.89868 | 1.64848 | 9253 ft | 255 kts | 97° |
| 2026-05-07 17:20 | 38.89476 | 1.67115 | 9726 ft | 268 kts | 108° |
| 2026-05-07 17:21 | 38.88727 | 1.69358 | 10182 ft | 282 kts | 115° |
| 2026-05-07 17:21 | 38.87817 | 1.71683 | 10577 ft | 297 kts | 116° |
| 2026-05-07 17:21 | 38.86874 | 1.74103 | 10956 ft | 313 kts | 115° |
| 2026-05-07 17:21 | 38.85905 | 1.76684 | 11348 ft | 328 kts | 115° |
| 2026-05-07 17:22 | 38.84924 | 1.79358 | 11736 ft | 342 kts | 115° |
| 2026-05-07 17:22 | 38.83891 | 1.82194 | 12210 ft | 354 kts | 114° |
| 2026-05-07 17:22 | 38.82856 | 1.85036 | 12983 ft | 355 kts | 114° |
| 2026-05-07 17:22 | 38.81850 | 1.87936 | 13621 ft | 361 kts | 111° |
| 2026-05-07 17:23 | 38.81183 | 1.91022 | 14328 ft | 365 kts | 98° |
| 2026-05-07 17:23 | 38.81202 | 1.94291 | 15029 ft | 371 kts | 82° |
| 2026-05-07 17:23 | 38.81885 | 1.97497 | 15629 ft | 379 kts | 71° |
| 2026-05-07 17:23 | 38.82864 | 2.00663 | 16254 ft | 385 kts | 69° |
| 2026-05-07 17:24 | 38.83930 | 2.03825 | 16869 ft | 391 kts | 68° |
| 2026-05-07 17:24 | 38.85038 | 2.07038 | 17460 ft | 397 kts | 68° |
| 2026-05-07 17:24 | 38.86143 | 2.10246 | 18046 ft | 402 kts | 68° |
| 2026-05-07 17:24 | 38.87273 | 2.13559 | 18625 ft | 408 kts | 68° |
| 2026-05-07 17:25 | 38.88405 | 2.16905 | 19205 ft | 413 kts | 68° |
| 2026-05-07 17:25 | 38.89545 | 2.20299 | 19750 ft | 419 kts | 69° |
| 2026-05-07 17:25 | 38.90704 | 2.23766 | 20407 ft | 421 kts | 69° |
| 2026-05-07 17:25 | 38.91855 | 2.27220 | 20935 ft | 426 kts | 69° |
| 2026-05-07 17:26 | 38.93021 | 2.30726 | 21453 ft | 431 kts | 69° |
| 2026-05-07 17:26 | 38.94194 | 2.34254 | 21980 ft | 435 kts | 69° |
| 2026-05-07 17:26 | 38.95396 | 2.37878 | 22504 ft | 440 kts | 69° |
| 2026-05-07 17:26 | 38.96589 | 2.41480 | 22998 ft | 444 kts | 69° |
| 2026-05-07 17:27 | 38.97794 | 2.45123 | 23500 ft | 448 kts | 69° |
| 2026-05-07 17:27 | 38.99010 | 2.48802 | 23958 ft | 453 kts | 69° |
| 2026-05-07 17:27 | 39.00251 | 2.52561 | 24409 ft | 458 kts | 69° |
| 2026-05-07 17:27 | 39.01487 | 2.56313 | 24930 ft | 460 kts | 69° |
| 2026-05-07 17:28 | 39.02747 | 2.60139 | 25342 ft | 466 kts | 69° |
| 2026-05-07 17:28 | 39.04008 | 2.63976 | 25857 ft | 468 kts | 70° |
| 2026-05-07 17:28 | 39.05276 | 2.67835 | 26316 ft | 471 kts | 70° |
| 2026-05-07 17:28 | 39.06553 | 2.71725 | 26716 ft | 476 kts | 70° |
| 2026-05-07 17:29 | 39.07835 | 2.75639 | 27183 ft | 479 kts | 70° |
| 2026-05-07 17:29 | 39.09118 | 2.79564 | 27566 ft | 483 kts | 71° |
| 2026-05-07 17:29 | 39.10413 | 2.83532 | 28020 ft | 485 kts | 71° |
| 2026-05-07 17:29 | 39.11718 | 2.87529 | 28681 ft | 482 kts | 71° |
| 2026-05-07 17:30 | 39.13000 | 2.91457 | 29369 ft | 478 kts | 71° |
| 2026-05-07 17:30 | 39.14290 | 2.95413 | 29903 ft | 478 kts | 71° |
| 2026-05-07 17:30 | 39.15635 | 2.99322 | 30325 ft | 481 kts | 69° |
| 2026-05-07 17:30 | 39.17107 | 3.03196 | 30753 ft | 482 kts | 67° |
| 2026-05-07 17:31 | 39.18648 | 3.07037 | 31161 ft | 483 kts | 66° |
| 2026-05-07 17:31 | 39.20208 | 3.10845 | 31583 ft | 484 kts | 65° |
| 2026-05-07 17:31 | 39.21777 | 3.14670 | 32002 ft | 484 kts | 65° |
| 2026-05-07 17:31 | 39.23338 | 3.18500 | 32362 ft | 485 kts | 65° |
| 2026-05-07 17:32 | 39.24896 | 3.22358 | 32696 ft | 487 kts | 66° |
| 2026-05-07 17:32 | 39.26428 | 3.26187 | 33156 ft | 485 kts | 66° |
| 2026-05-07 17:32 | 39.27966 | 3.30055 | 33563 ft | 485 kts | 66° |
| 2026-05-07 17:32 | 39.29506 | 3.33949 | 33905 ft | 486 kts | 66° |
| 2026-05-07 17:33 | 39.31059 | 3.37894 | 34226 ft | 487 kts | 66° |
| 2026-05-07 17:33 | 39.32600 | 3.41818 | 34603 ft | 486 kts | 66° |
| 2026-05-07 17:33 | 39.34113 | 3.45677 | 34877 ft | 486 kts | 66° |
| 2026-05-07 17:33 | 39.35640 | 3.49579 | 35123 ft | 487 kts | 66° |
| 2026-05-07 17:34 | 39.37182 | 3.53525 | 35338 ft | 488 kts | 66° |
| 2026-05-07 17:34 | 39.38714 | 3.57452 | 35582 ft | 488 kts | 66° |
| 2026-05-07 17:34 | 39.40253 | 3.61404 | 35839 ft | 488 kts | 66° |
| 2026-05-07 17:34 | 39.41781 | 3.65328 | 35889 ft | 491 kts | 66° |
| 2026-05-07 17:35 | 39.44839 | 3.73204 | 35909 ft | 489 kts | 66° |
| 2026-05-07 17:35 | 39.47900 | 3.81108 | 35913 ft | 490 kts | 66° |
| 2026-05-07 17:36 | 39.50952 | 3.89009 | 35914 ft | 493 kts | 66° |
| 2026-05-07 17:36 | 39.54013 | 3.96947 | 35915 ft | 491 kts | 66° |
| 2026-05-07 17:37 | 39.57058 | 4.04843 | 35917 ft | 493 kts | 65° |
| 2026-05-07 17:37 | 39.60856 | 4.12182 | 35913 ft | 496 kts | 45° |
| 2026-05-07 17:38 | 39.63551 | 4.14964 | 35920 ft | 496 kts | 30° |
| 2026-05-07 17:38 | 39.66653 | 4.16952 | 35926 ft | 492 kts | 18° |
| 2026-05-07 17:38 | 39.73167 | 4.19324 | 35928 ft | 488 kts | 7° |
| 2026-05-07 17:39 | 39.79843 | 4.20709 | 35927 ft | 485 kts | 4° |
| 2026-05-07 17:39 | 39.86581 | 4.21856 | 35929 ft | 486 kts | 3° |
| 2026-05-07 17:40 | 39.93227 | 4.23178 | 35929 ft | 488 kts | 5° |
| 2026-05-07 17:40 | 39.99922 | 4.24727 | 35931 ft | 488 kts | 6° |
| 2026-05-07 17:41 | 40.06611 | 4.26324 | 35939 ft | 489 kts | 6° |
| 2026-05-07 17:41 | 40.13300 | 4.27925 | 35937 ft | 488 kts | 6° |
| 2026-05-07 17:42 | 40.19994 | 4.29521 | 35937 ft | 486 kts | 6° |
| 2026-05-07 17:42 | 40.26623 | 4.31095 | 35938 ft | 487 kts | 6° |
| 2026-05-07 17:43 | 40.33295 | 4.32677 | 35951 ft | 489 kts | 6° |
| 2026-05-07 17:43 | 40.39955 | 4.34257 | 35954 ft | 487 kts | 6° |
| 2026-05-07 17:44 | 40.46625 | 4.35845 | 35948 ft | 486 kts | 6° |
| 2026-05-07 17:44 | 40.53300 | 4.37436 | 35953 ft | 487 kts | 6° |
| 2026-05-07 17:45 | 40.59919 | 4.39017 | 35950 ft | 487 kts | 6° |
| 2026-05-07 17:45 | 40.66600 | 4.40616 | 35953 ft | 488 kts | 6° |
| 2026-05-07 17:46 | 40.73247 | 4.42211 | 35951 ft | 486 kts | 6° |
| 2026-05-07 17:46 | 40.79911 | 4.43814 | 35949 ft | 487 kts | 6° |
| 2026-05-07 17:47 | 40.86577 | 4.45418 | 35944 ft | 487 kts | 6° |
| 2026-05-07 17:47 | 40.93198 | 4.47016 | 35945 ft | 486 kts | 6° |
| 2026-05-07 17:48 | 40.99908 | 4.48640 | 35947 ft | 487 kts | 7° |
| 2026-05-07 17:48 | 41.06557 | 4.50257 | 35948 ft | 486 kts | 6° |
| 2026-05-07 17:49 | 41.13212 | 4.51879 | 35947 ft | 486 kts | 6° |
| 2026-05-07 17:49 | 41.19828 | 4.53494 | 35948 ft | 487 kts | 7° |
| 2026-05-07 17:50 | 41.26492 | 4.55123 | 35949 ft | 486 kts | 6° |
| 2026-05-07 17:50 | 41.33131 | 4.56748 | 35949 ft | 486 kts | 6° |
| 2026-05-07 17:51 | 41.39791 | 4.58381 | 35946 ft | 487 kts | 7° |
| 2026-05-07 17:51 | 41.46481 | 4.60025 | 35948 ft | 486 kts | 6° |
| 2026-05-07 17:52 | 41.53124 | 4.61663 | 35948 ft | 486 kts | 6° |
| 2026-05-07 17:52 | 41.59789 | 4.63305 | 35949 ft | 488 kts | 6° |
| 2026-05-07 17:53 | 41.66423 | 4.64947 | 35948 ft | 486 kts | 6° |
| 2026-05-07 17:53 | 41.73007 | 4.67072 | 35946 ft | 490 kts | 17° |
| 2026-05-07 17:54 | 41.79176 | 4.70944 | 35949 ft | 493 kts | 28° |
| 2026-05-07 17:54 | 41.85056 | 4.75665 | 35946 ft | 493 kts | 31° |
| 2026-05-07 17:55 | 41.90867 | 4.80521 | 35947 ft | 492 kts | 32° |
| 2026-05-07 17:55 | 41.96691 | 4.85347 | 35950 ft | 493 kts | 31° |
| 2026-05-07 17:56 | 42.02529 | 4.90130 | 35947 ft | 492 kts | 30° |
| 2026-05-07 17:56 | 42.08375 | 4.94891 | 35947 ft | 493 kts | 30° |
| 2026-05-07 17:57 | 42.13283 | 4.98881 | 35947 ft | 493 kts | 30° |
| 2026-05-07 17:57 | 42.20153 | 5.04475 | 35946 ft | 495 kts | 30° |
| 2026-05-07 17:58 | 42.26015 | 5.09257 | 35946 ft | 494 kts | 30° |
| 2026-05-07 17:58 | 42.31892 | 5.14066 | 35946 ft | 495 kts | 30° |
| 2026-05-07 17:59 | 42.37791 | 5.18901 | 35944 ft | 493 kts | 30° |
| 2026-05-07 17:59 | 42.43650 | 5.23711 | 35944 ft | 494 kts | 30° |
| 2026-05-07 18:00 | 42.49494 | 5.28522 | 35943 ft | 495 kts | 30° |
| 2026-05-07 18:00 | 42.55349 | 5.33352 | 35943 ft | 494 kts | 30° |
| 2026-05-07 18:01 | 42.61230 | 5.38213 | 35941 ft | 495 kts | 30° |
| 2026-05-07 18:01 | 42.67099 | 5.43079 | 35936 ft | 495 kts | 30° |
| 2026-05-07 18:02 | 42.75896 | 5.50390 | 35938 ft | 496 kts | 29° |
| 2026-05-07 18:03 | 42.81748 | 5.55267 | 35946 ft | 498 kts | 30° |
| 2026-05-07 18:03 | 42.87663 | 5.60204 | 35948 ft | 498 kts | 29° |
| 2026-05-07 18:04 | 42.93548 | 5.65131 | 35947 ft | 498 kts | 30° |
| 2026-05-07 18:04 | 42.99459 | 5.70093 | 35948 ft | 498 kts | 30° |
| 2026-05-07 18:05 | 43.05340 | 5.75035 | 35948 ft | 496 kts | 30° |
| 2026-05-07 18:05 | 43.11216 | 5.79984 | 35949 ft | 498 kts | 30° |
| 2026-05-07 18:06 | 43.17120 | 5.84971 | 35952 ft | 495 kts | 29° |
| 2026-05-07 18:06 | 43.22981 | 5.89935 | 35954 ft | 497 kts | 29° |
| 2026-05-07 18:07 | 43.28875 | 5.94941 | 35956 ft | 496 kts | 29° |
| 2026-05-07 18:07 | 43.34688 | 5.99878 | 35949 ft | 494 kts | 28° |
| 2026-05-07 18:08 | 43.40869 | 6.03867 | 35939 ft | 485 kts | 10° |
| 2026-05-07 18:08 | 43.47439 | 6.05255 | 35937 ft | 477 kts | 359° |
| 2026-05-07 18:09 | 43.54045 | 6.05842 | 35936 ft | 474 kts | 356° |
| 2026-05-07 18:09 | 43.60625 | 6.06334 | 35941 ft | 472 kts | 357° |
| 2026-05-07 18:10 | 43.67175 | 6.06897 | 35946 ft | 471 kts | 358° |
| 2026-05-07 18:10 | 43.73698 | 6.07593 | 35948 ft | 474 kts | 0° |
| 2026-05-07 18:11 | 43.80148 | 6.09724 | 35956 ft | 485 kts | 16° |
| 2026-05-07 18:11 | 43.86298 | 6.13565 | 35961 ft | 486 kts | 22° |
| 2026-05-07 18:12 | 43.92293 | 6.17811 | 35964 ft | 487 kts | 23° |
| 2026-05-07 18:12 | 43.98331 | 6.22109 | 35966 ft | 488 kts | 22° |
| 2026-05-07 18:13 | 44.04365 | 6.26346 | 35970 ft | 485 kts | 22° |
| 2026-05-07 18:13 | 44.10411 | 6.30543 | 35974 ft | 487 kts | 22° |
| 2026-05-07 18:14 | 44.16478 | 6.34735 | 35984 ft | 484 kts | 21° |
| 2026-05-07 18:14 | 44.22500 | 6.38888 | 35990 ft | 486 kts | 22° |
| 2026-05-07 18:15 | 44.28518 | 6.43044 | 35989 ft | 484 kts | 21° |
| 2026-05-07 18:15 | 44.34540 | 6.47218 | 35993 ft | 482 kts | 22° |
| 2026-05-07 18:16 | 44.40522 | 6.51375 | 35990 ft | 482 kts | 22° |
| 2026-05-07 18:16 | 44.46516 | 6.55543 | 35988 ft | 480 kts | 22° |
| 2026-05-07 18:17 | 44.52477 | 6.59699 | 35989 ft | 480 kts | 22° |
| 2026-05-07 18:17 | 44.58440 | 6.63867 | 35992 ft | 479 kts | 22° |
| 2026-05-07 18:18 | 44.64370 | 6.68023 | 35996 ft | 477 kts | 23° |
| 2026-05-07 18:18 | 44.70295 | 6.72180 | 36006 ft | 478 kts | 23° |
| 2026-05-07 18:19 | 44.76223 | 6.76295 | 36022 ft | 475 kts | 20° |
| 2026-05-07 18:19 | 44.82420 | 6.78855 | 36013 ft | 461 kts | 359° |
| 2026-05-07 18:20 | 44.88790 | 6.78867 | 36002 ft | 456 kts | 352° |
| 2026-05-07 18:20 | 44.95096 | 6.78331 | 36000 ft | 453 kts | 351° |
| 2026-05-07 18:21 | 45.01342 | 6.77774 | 36000 ft | 452 kts | 351° |
| 2026-05-07 18:21 | 45.07643 | 6.77278 | 36000 ft | 453 kts | 352° |
| 2026-05-07 18:22 | 45.13907 | 6.76831 | 36001 ft | 451 kts | 352° |
| 2026-05-07 18:22 | 45.20166 | 6.76404 | 35998 ft | 452 kts | 352° |
| 2026-05-07 18:23 | 45.26438 | 6.75982 | 35999 ft | 452 kts | 352° |
| 2026-05-07 18:23 | 45.32661 | 6.75567 | 35992 ft | 451 kts | 352° |
| 2026-05-07 18:24 | 45.38942 | 6.75147 | 35993 ft | 451 kts | 352° |
| 2026-05-07 18:24 | 45.45206 | 6.74727 | 35995 ft | 451 kts | 352° |
| 2026-05-07 18:25 | 45.51413 | 6.74309 | 35997 ft | 449 kts | 352° |
| 2026-05-07 18:25 | 45.57681 | 6.73879 | 35993 ft | 450 kts | 352° |
| 2026-05-07 18:26 | 45.63884 | 6.73454 | 35993 ft | 449 kts | 352° |
| 2026-05-07 18:26 | 45.70113 | 6.73024 | 35995 ft | 448 kts | 352° |
| 2026-05-07 18:27 | 45.76328 | 6.72594 | 35994 ft | 448 kts | 352° |
| 2026-05-07 18:27 | 45.82518 | 6.72167 | 35996 ft | 447 kts | 352° |
| 2026-05-07 18:28 | 45.88730 | 6.71744 | 35993 ft | 446 kts | 352° |
| 2026-05-07 18:28 | 45.94895 | 6.71328 | 35994 ft | 446 kts | 352° |
| 2026-05-07 18:29 | 46.01111 | 6.70905 | 35994 ft | 447 kts | 352° |
| 2026-05-07 18:29 | 46.07258 | 6.70484 | 35990 ft | 445 kts | 352° |
| 2026-05-07 18:30 | 46.13380 | 6.69483 | 36007 ft | 439 kts | 343° |
| 2026-05-07 18:30 | 46.19230 | 6.67164 | 36015 ft | 435 kts | 337° |
| 2026-05-07 18:31 | 46.24959 | 6.64343 | 36015 ft | 434 kts | 336° |
| 2026-05-07 18:31 | 46.30622 | 6.61489 | 36013 ft | 434 kts | 336° |
| 2026-05-07 18:32 | 46.36317 | 6.58654 | 36009 ft | 434 kts | 336° |
| 2026-05-07 18:32 | 46.42022 | 6.55839 | 36002 ft | 434 kts | 336° |
| 2026-05-07 18:33 | 46.47732 | 6.53030 | 35993 ft | 434 kts | 336° |
| 2026-05-07 18:33 | 46.53438 | 6.50224 | 35889 ft | 436 kts | 337° |
| 2026-05-07 18:33 | 46.56284 | 6.48823 | 35686 ft | 434 kts | 336° |
| 2026-05-07 18:34 | 46.59130 | 6.47423 | 35480 ft | 430 kts | 336° |
| 2026-05-07 18:34 | 46.61972 | 6.46023 | 35279 ft | 430 kts | 336° |
| 2026-05-07 18:34 | 46.64805 | 6.44625 | 35070 ft | 431 kts | 336° |
| 2026-05-07 18:34 | 46.67638 | 6.43223 | 34866 ft | 431 kts | 336° |
| 2026-05-07 18:35 | 46.70469 | 6.41821 | 34659 ft | 432 kts | 336° |
| 2026-05-07 18:35 | 46.73268 | 6.40434 | 34406 ft | 431 kts | 336° |
| 2026-05-07 18:35 | 46.76135 | 6.39012 | 34144 ft | 431 kts | 336° |
| 2026-05-07 18:35 | 46.78939 | 6.37620 | 33890 ft | 431 kts | 337° |
| 2026-05-07 18:36 | 46.81782 | 6.36206 | 33632 ft | 432 kts | 337° |
| 2026-05-07 18:36 | 46.84611 | 6.34798 | 33374 ft | 433 kts | 336° |
| 2026-05-07 18:36 | 46.87488 | 6.33365 | 33118 ft | 433 kts | 336° |
| 2026-05-07 18:36 | 46.90317 | 6.31954 | 32866 ft | 433 kts | 336° |
| 2026-05-07 18:37 | 46.93178 | 6.30526 | 32610 ft | 434 kts | 336° |
| 2026-05-07 18:37 | 46.96008 | 6.29111 | 32356 ft | 434 kts | 336° |
| 2026-05-07 18:37 | 46.98851 | 6.27688 | 32108 ft | 434 kts | 336° |
| 2026-05-07 18:37 | 47.01705 | 6.26258 | 31861 ft | 434 kts | 337° |
| 2026-05-07 18:38 | 47.04572 | 6.24821 | 31606 ft | 434 kts | 337° |
| 2026-05-07 18:38 | 47.07378 | 6.23292 | 31358 ft | 433 kts | 334° |
| 2026-05-07 18:38 | 47.10145 | 6.21492 | 31100 ft | 432 kts | 331° |
| 2026-05-07 18:38 | 47.12813 | 6.19588 | 30857 ft | 433 kts | 330° |
| 2026-05-07 18:39 | 47.15501 | 6.17598 | 30605 ft | 433 kts | 329° |
| 2026-05-07 18:39 | 47.18201 | 6.15579 | 30350 ft | 433 kts | 329° |
| 2026-05-07 18:39 | 47.20871 | 6.13587 | 30089 ft | 435 kts | 329° |
| 2026-05-07 18:40 | 47.26255 | 6.09609 | 30004 ft | 437 kts | 330° |
| 2026-05-07 18:40 | 47.31624 | 6.05735 | 29995 ft | 419 kts | 332° |
| 2026-05-07 18:40 | 47.34308 | 6.04168 | 29991 ft | 406 kts | 339° |
| 2026-05-07 18:41 | 47.37041 | 6.03339 | 30004 ft | 407 kts | 351° |
| 2026-05-07 18:41 | 47.42781 | 6.03111 | 30008 ft | 415 kts | 358° |
| 2026-05-07 18:42 | 47.48541 | 6.03354 | 30003 ft | 414 kts | 358° |
| 2026-05-07 18:42 | 47.54294 | 6.03600 | 30002 ft | 415 kts | 358° |
| 2026-05-07 18:43 | 47.60065 | 6.03790 | 30011 ft | 415 kts | 358° |
| 2026-05-07 18:43 | 47.65818 | 6.03944 | 30007 ft | 414 kts | 358° |
| 2026-05-07 18:44 | 47.71558 | 6.04083 | 30001 ft | 414 kts | 358° |
| 2026-05-07 18:44 | 47.77312 | 6.04225 | 30010 ft | 413 kts | 358° |
| 2026-05-07 18:45 | 47.83044 | 6.04403 | 30011 ft | 413 kts | 358° |
| 2026-05-07 18:45 | 47.88780 | 6.04590 | 30008 ft | 413 kts | 358° |
| 2026-05-07 18:46 | 47.94524 | 6.04773 | 30012 ft | 413 kts | 358° |
| 2026-05-07 18:46 | 48.00266 | 6.04954 | 30010 ft | 413 kts | 358° |
| 2026-05-07 18:47 | 48.06023 | 6.05135 | 30010 ft | 413 kts | 359° |
| 2026-05-07 18:47 | 48.11777 | 6.05314 | 30010 ft | 413 kts | 359° |
| 2026-05-07 18:48 | 48.17500 | 6.05494 | 30014 ft | 413 kts | 359° |
| 2026-05-07 18:48 | 48.23260 | 6.05675 | 30019 ft | 413 kts | 359° |
| 2026-05-07 18:49 | 48.28885 | 6.05977 | 29969 ft | 396 kts | 3° |
| 2026-05-07 18:49 | 48.31557 | 6.06676 | 29695 ft | 391 kts | 13° |
| 2026-05-07 18:49 | 48.34076 | 6.08185 | 29299 ft | 398 kts | 25° |
| 2026-05-07 18:49 | 48.36523 | 6.10268 | 28814 ft | 404 kts | 29° |
| 2026-05-07 18:50 | 48.38864 | 6.12490 | 28321 ft | 402 kts | 31° |
| 2026-05-07 18:50 | 48.41186 | 6.14786 | 27827 ft | 400 kts | 31° |
| 2026-05-07 18:50 | 48.43506 | 6.17105 | 27332 ft | 397 kts | 32° |
| 2026-05-07 18:50 | 48.45782 | 6.19378 | 26846 ft | 394 kts | 31° |
| 2026-05-07 18:51 | 48.48058 | 6.21638 | 26357 ft | 391 kts | 31° |
| 2026-05-07 18:51 | 48.50307 | 6.23861 | 25881 ft | 388 kts | 31° |
| 2026-05-07 18:51 | 48.52541 | 6.26061 | 25406 ft | 385 kts | 31° |
| 2026-05-07 18:51 | 48.54780 | 6.28261 | 24929 ft | 382 kts | 31° |
| 2026-05-07 18:52 | 48.56985 | 6.30426 | 24460 ft | 379 kts | 31° |
| 2026-05-07 18:52 | 48.59195 | 6.32593 | 23994 ft | 376 kts | 31° |
| 2026-05-07 18:52 | 48.61371 | 6.34728 | 23524 ft | 373 kts | 31° |
| 2026-05-07 18:52 | 48.63544 | 6.36821 | 23051 ft | 370 kts | 29° |
| 2026-05-07 18:53 | 48.65754 | 6.38678 | 22584 ft | 366 kts | 24° |
| 2026-05-07 18:53 | 48.68110 | 6.40126 | 22108 ft | 362 kts | 17° |
| 2026-05-07 18:53 | 48.70495 | 6.41225 | 21662 ft | 359 kts | 13° |
| 2026-05-07 18:53 | 48.72880 | 6.42175 | 21217 ft | 356 kts | 12° |
| 2026-05-07 18:54 | 48.75292 | 6.43089 | 20761 ft | 353 kts | 12° |
| 2026-05-07 18:54 | 48.77670 | 6.43991 | 20310 ft | 351 kts | 12° |
| 2026-05-07 18:54 | 48.80000 | 6.44889 | 19880 ft | 349 kts | 12° |
| 2026-05-07 18:54 | 48.82349 | 6.45811 | 19424 ft | 346 kts | 12° |
| 2026-05-07 18:55 | 48.84661 | 6.46730 | 19000 ft | 343 kts | 13° |
| 2026-05-07 18:55 | 48.86945 | 6.47645 | 18590 ft | 341 kts | 13° |
| 2026-05-07 18:55 | 48.89235 | 6.48568 | 18143 ft | 339 kts | 13° |
| 2026-05-07 18:55 | 48.91481 | 6.49476 | 17711 ft | 337 kts | 13° |
| 2026-05-07 18:56 | 48.93742 | 6.50391 | 17294 ft | 335 kts | 13° |
| 2026-05-07 18:56 | 48.96001 | 6.51308 | 16866 ft | 333 kts | 13° |
| 2026-05-07 18:56 | 48.98225 | 6.52211 | 16437 ft | 331 kts | 13° |
| 2026-05-07 18:56 | 49.00418 | 6.53103 | 16019 ft | 330 kts | 13° |
| 2026-05-07 18:57 | 49.02638 | 6.54007 | 15587 ft | 328 kts | 13° |
| 2026-05-07 18:57 | 49.04813 | 6.54893 | 15175 ft | 326 kts | 13° |
| 2026-05-07 18:57 | 49.07013 | 6.55790 | 14747 ft | 324 kts | 13° |
| 2026-05-07 18:57 | 49.09159 | 6.56666 | 14330 ft | 322 kts | 13° |
| 2026-05-07 18:58 | 49.11319 | 6.57549 | 13909 ft | 320 kts | 13° |
| 2026-05-07 18:58 | 49.13472 | 6.58429 | 13505 ft | 318 kts | 13° |
| 2026-05-07 18:58 | 49.15608 | 6.59303 | 13090 ft | 316 kts | 14° |
| 2026-05-07 18:58 | 49.17702 | 6.60161 | 12684 ft | 315 kts | 14° |
| 2026-05-07 18:59 | 49.19812 | 6.61026 | 12271 ft | 313 kts | 14° |
| 2026-05-07 18:59 | 49.21934 | 6.61767 | 11856 ft | 311 kts | 7° |
| 2026-05-07 18:59 | 49.24057 | 6.61747 | 11452 ft | 306 kts | 346° |
| 2026-05-07 18:59 | 49.26046 | 6.60663 | 11057 ft | 302 kts | 334° |
| 2026-05-07 19:00 | 49.27903 | 6.59293 | 10658 ft | 300 kts | 332° |
| 2026-05-07 19:00 | 49.29786 | 6.57864 | 10256 ft | 298 kts | 332° |
| 2026-05-07 19:00 | 49.31625 | 6.56517 | 10023 ft | 290 kts | 333° |
| 2026-05-07 19:00 | 49.33412 | 6.55255 | 9904 ft | 279 kts | 334° |
| 2026-05-07 19:01 | 49.35183 | 6.54131 | 9592 ft | 277 kts | 343° |
| 2026-05-07 19:01 | 49.37084 | 6.53737 | 9250 ft | 276 kts | 356° |
| 2026-05-07 19:01 | 49.38992 | 6.53668 | 8909 ft | 274 kts | 357° |
| 2026-05-07 19:01 | 49.40896 | 6.53524 | 8554 ft | 273 kts | 355° |
| 2026-05-07 19:02 | 49.42757 | 6.53341 | 8241 ft | 270 kts | 355° |
| 2026-05-07 19:02 | 49.44643 | 6.53159 | 7929 ft | 267 kts | 356° |
| 2026-05-07 19:02 | 49.46461 | 6.52996 | 7627 ft | 264 kts | 356° |
| 2026-05-07 19:02 | 49.48273 | 6.52843 | 7350 ft | 259 kts | 356° |
| 2026-05-07 19:03 | 49.50062 | 6.52697 | 7096 ft | 254 kts | 357° |
| 2026-05-07 19:03 | 49.51801 | 6.52557 | 6843 ft | 249 kts | 357° |
| 2026-05-07 19:03 | 49.53512 | 6.52421 | 6590 ft | 245 kts | 356° |
| 2026-05-07 19:03 | 49.55196 | 6.52286 | 6337 ft | 241 kts | 357° |
| 2026-05-07 19:04 | 49.56865 | 6.52150 | 6084 ft | 237 kts | 357° |
| 2026-05-07 19:04 | 49.58470 | 6.52017 | 5836 ft | 232 kts | 357° |
| 2026-05-07 19:04 | 49.60080 | 6.51884 | 5595 ft | 227 kts | 357° |
| 2026-05-07 19:04 | 49.61627 | 6.51757 | 5395 ft | 222 kts | 358° |
| 2026-05-07 19:05 | 49.63158 | 6.51635 | 5197 ft | 221 kts | 357° |
| 2026-05-07 19:05 | 49.64680 | 6.51300 | 4996 ft | 221 kts | 343° |
| 2026-05-07 19:05 | 49.66063 | 6.50250 | 4794 ft | 222 kts | 329° |
| 2026-05-07 19:05 | 49.67370 | 6.48978 | 4585 ft | 221 kts | 329° |
| 2026-05-07 19:06 | 49.68674 | 6.47728 | 4384 ft | 221 kts | 327° |
| 2026-05-07 19:06 | 49.70312 | 6.43975 | 4046 ft | 217 kts | 274° |
| 2026-05-07 19:06 | 49.70018 | 6.41788 | 3959 ft | 205 kts | 246° |
| 2026-05-07 19:07 | 49.69396 | 6.39811 | 3624 ft | 207 kts | 243° |
| 2026-05-07 19:07 | 49.68736 | 6.37828 | 3333 ft | 206 kts | 242° |
| 2026-05-07 19:07 | 49.68060 | 6.35905 | 3049 ft | 200 kts | 241° |
| 2026-05-07 19:07 | 49.67406 | 6.34096 | 2805 ft | 187 kts | 240° |
| 2026-05-07 19:08 | 49.66789 | 6.32405 | 2531 ft | 177 kts | 240° |
| 2026-05-07 19:08 | 49.66207 | 6.30820 | 2313 ft | 164 kts | 240° |
| 2026-05-07 19:08 | 49.65659 | 6.29330 | 2087 ft | 158 kts | 239° |
| 2026-05-07 19:08 | 49.65115 | 6.27854 | 1873 ft | 158 kts | 239° |
| 2026-05-07 19:09 | 49.64582 | 6.26394 | 1664 ft | 156 kts | 240° |
| 2026-05-07 19:09 | 49.64056 | 6.24953 | 1458 ft | 153 kts | 239° |
| 2026-05-07 19:09 | 49.63536 | 6.23550 | 1268 ft | 151 kts | 239° |
| 2026-05-07 19:09 | 49.63038 | 6.22216 | 1207 ft | 125 kts | 240° |
| 2026-05-07 19:10 | 49.62691 | 6.21276 | 1225 ft | 77 kts | 240° |
| 2026-05-07 19:10 | 49.62494 | 6.20746 | 1226 ft | 37 kts | 240° |
| 2026-05-07 19:10 | 49.62462 | 6.20548 | 1225 ft | 14 kts | 313° |
| 2026-05-07 19:10 | 49.62546 | 6.20471 | 1226 ft | 13 kts | 334° |
| 2026-05-07 19:11 | 49.62618 | 6.20503 | 1228 ft | 10 kts | 46° |
| 2026-05-07 19:11 | 49.62663 | 6.20576 | 1231 ft | 7 kts | 46° |
| 2026-05-07 19:11 | 49.62706 | 6.20633 | 1233 ft | 9 kts | 35° |
| 2026-05-07 19:11 | 49.62765 | 6.20704 | 1235 ft | 12 kts | 43° |
| 2026-05-07 19:12 | 49.62825 | 6.20831 | 1236 ft | 16 kts | 64° |
| 2026-05-07 19:12 | 49.62873 | 6.20987 | 1236 ft | 15 kts | 65° |
| 2026-05-07 19:12 | 49.62922 | 6.21144 | 1234 ft | 16 kts | 64° |
| 2026-05-07 19:12 | 49.62971 | 6.21303 | 1234 ft | 15 kts | 65° |
| 2026-05-07 19:13 | 49.63019 | 6.21460 | 1229 ft | 18 kts | 64° |
| 2026-05-07 19:13 | 49.63073 | 6.21631 | 1227 ft | 16 kts | 64° |
| 2026-05-07 19:13 | 49.63107 | 6.21743 | 1224 ft | 7 kts | 62° |
| 2026-05-07 19:13 | 49.63147 | 6.21767 | 1225 ft | 5 kts | 338° |
| 2026-05-07 19:14 | 49.63174 | 6.21744 | 1227 ft | 4 kts | 329° |
| 2026-05-07 19:14 | 49.63207 | 6.21715 | 1229 ft | 6 kts | 330° |
| 2026-05-07 19:14 | 49.63240 | 6.21683 | 1232 ft | 4 kts | 320° |
| 2026-05-07 19:14 | 49.63262 | 6.21645 | 1233 ft | 6 kts | 309° |
| 2026-05-07 19:15 | 49.63274 | 6.21589 | 1234 ft | 6 kts | 251° |
| 2026-05-07 19:15 | 49.63282 | 6.21532 | 1235 ft | 4 kts | 322° |
| 2026-05-07 19:15 | 49.63303 | 6.21512 | 1235 ft | 2 kts | 329° |
| 2026-05-07 19:15 | 49.63311 | 6.21505 | 1236 ft | 0 kts | 329° |